sensor_id;sensor_type;location;lat;lon;timestamp;P1;durP1;ratioP1;P2;durP2;ratioP2
36359;SDS011;22388;52.432;20.662;2023-06-14T00:01:41;11.65;;;8.23;;
36359;SDS011;22388;52.432;20.662;2023-06-14T00:04:06;13.55;;;7.88;;
36359;SDS011;22388;52.432;20.662;2023-06-14T00:06:34;13.57;;;7.82;;
36359;SDS011;22388;52.432;20.662;2023-06-14T00:08:59;16.13;;;8.82;;
36359;SDS011;22388;52.432;20.662;2023-06-14T00:11:24;13.18;;;8.52;;
36359;SDS011;22388;52.432;20.662;2023-06-14T00:13:52;10.88;;;8.02;;
36359;SDS011;22388;52.432;20.662;2023-06-14T00:16:17;13.13;;;8.23;;
36359;SDS011;22388;52.432;20.662;2023-06-14T00:18:44;15.82;;;7.90;;
36359;SDS011;22388;52.432;20.662;2023-06-14T00:21:10;15.73;;;8.70;;
36359;SDS011;22388;52.432;20.662;2023-06-14T00:23:35;14.95;;;9.70;;
36359;SDS011;22388;52.432;20.662;2023-06-14T00:26:01;15.70;;;8.88;;
36359;SDS011;22388;52.432;20.662;2023-06-14T00:28:26;12.05;;;8.23;;
36359;SDS011;22388;52.432;20.662;2023-06-14T00:30:52;11.02;;;8.10;;
36359;SDS011;22388;52.432;20.662;2023-06-14T00:33:17;15.20;;;8.88;;
36359;SDS011;22388;52.432;20.662;2023-06-14T00:35:43;12.95;;;8.32;;
36359;SDS011;22388;52.432;20.662;2023-06-14T00:38:08;13.15;;;8.65;;
36359;SDS011;22388;52.432;20.662;2023-06-14T00:40:34;13.85;;;8.60;;
36359;SDS011;22388;52.432;20.662;2023-06-14T00:43:00;13.10;;;8.93;;
36359;SDS011;22388;52.432;20.662;2023-06-14T00:45:26;12.13;;;8.50;;
36359;SDS011;22388;52.432;20.662;2023-06-14T00:47:51;15.27;;;8.52;;
36359;SDS011;22388;52.432;20.662;2023-06-14T00:50:20;11.43;;;7.88;;
36359;SDS011;22388;52.432;20.662;2023-06-14T00:52:46;15.95;;;8.40;;
36359;SDS011;22388;52.432;20.662;2023-06-14T00:55:12;12.88;;;9.00;;
36359;SDS011;22388;52.432;20.662;2023-06-14T00:57:38;15.93;;;9.25;;
36359;SDS011;22388;52.432;20.662;2023-06-14T01:00:05;13.68;;;8.48;;
36359;SDS011;22388;52.432;20.662;2023-06-14T01:02:35;15.63;;;8.73;;
36359;SDS011;22388;52.432;20.662;2023-06-14T01:05:01;12.68;;;8.88;;
36359;SDS011;22388;52.432;20.662;2023-06-14T01:07:33;14.70;;;9.32;;
36359;SDS011;22388;52.432;20.662;2023-06-14T01:10:25;14.48;;;8.00;;
36359;SDS011;22388;52.432;20.662;2023-06-14T01:12:57;12.05;;;8.15;;
36359;SDS011;22388;52.432;20.662;2023-06-14T01:15:24;12.88;;;8.85;;
36359;SDS011;22388;52.432;20.662;2023-06-14T01:17:50;12.32;;;8.23;;
36359;SDS011;22388;52.432;20.662;2023-06-14T01:20:19;14.45;;;8.05;;
36359;SDS011;22388;52.432;20.662;2023-06-14T01:25:18;15.00;;;9.02;;
36359;SDS011;22388;52.432;20.662;2023-06-14T01:27:47;13.75;;;9.07;;
36359;SDS011;22388;52.432;20.662;2023-06-14T01:30:13;16.92;;;9.32;;
36359;SDS011;22388;52.432;20.662;2023-06-14T01:32:39;13.10;;;9.18;;
36359;SDS011;22388;52.432;20.662;2023-06-14T01:35:05;18.38;;;9.73;;
36359;SDS011;22388;52.432;20.662;2023-06-14T01:37:31;14.55;;;9.13;;
36359;SDS011;22388;52.432;20.662;2023-06-14T01:39:56;13.23;;;9.05;;
36359;SDS011;22388;52.432;20.662;2023-06-14T01:42:23;16.50;;;9.07;;
36359;SDS011;22388;52.432;20.662;2023-06-14T01:44:48;13.05;;;8.90;;
36359;SDS011;22388;52.432;20.662;2023-06-14T01:47:15;14.95;;;9.48;;
36359;SDS011;22388;52.432;20.662;2023-06-14T01:49:41;16.38;;;8.82;;
36359;SDS011;22388;52.432;20.662;2023-06-14T01:52:06;12.38;;;8.80;;
36359;SDS011;22388;52.432;20.662;2023-06-14T01:54:35;11.38;;;8.35;;
36359;SDS011;22388;52.432;20.662;2023-06-14T01:57:03;14.27;;;8.82;;
36359;SDS011;22388;52.432;20.662;2023-06-14T01:59:28;14.05;;;8.75;;
36359;SDS011;22388;52.432;20.662;2023-06-14T02:01:54;12.52;;;8.73;;
36359;SDS011;22388;52.432;20.662;2023-06-14T02:04:19;11.15;;;8.07;;
36359;SDS011;22388;52.432;20.662;2023-06-14T02:06:45;12.70;;;8.90;;
36359;SDS011;22388;52.432;20.662;2023-06-14T02:09:10;14.63;;;9.50;;
36359;SDS011;22388;52.432;20.662;2023-06-14T02:11:36;13.68;;;9.20;;
36359;SDS011;22388;52.432;20.662;2023-06-14T02:14:01;12.70;;;8.65;;
36359;SDS011;22388;52.432;20.662;2023-06-14T02:16:27;14.13;;;8.82;;
36359;SDS011;22388;52.432;20.662;2023-06-14T02:18:54;15.32;;;9.55;;
36359;SDS011;22388;52.432;20.662;2023-06-14T02:21:20;17.23;;;10.15;;
36359;SDS011;22388;52.432;20.662;2023-06-14T02:23:47;14.35;;;9.90;;
36359;SDS011;22388;52.432;20.662;2023-06-14T02:26:13;13.27;;;10.00;;
36359;SDS011;22388;52.432;20.662;2023-06-14T02:28:38;15.50;;;12.73;;
36359;SDS011;22388;52.432;20.662;2023-06-14T02:31:03;18.27;;;14.27;;
36359;SDS011;22388;52.432;20.662;2023-06-14T02:33:29;25.00;;;13.13;;
36359;SDS011;22388;52.432;20.662;2023-06-14T02:35:55;16.27;;;11.68;;
36359;SDS011;22388;52.432;20.662;2023-06-14T02:38:21;15.30;;;11.55;;
36359;SDS011;22388;52.432;20.662;2023-06-14T02:40:46;20.27;;;12.13;;
36359;SDS011;22388;52.432;20.662;2023-06-14T02:43:12;17.42;;;12.10;;
36359;SDS011;22388;52.432;20.662;2023-06-14T02:45:37;17.58;;;13.05;;
36359;SDS011;22388;52.432;20.662;2023-06-14T02:48:03;16.75;;;13.02;;
36359;SDS011;22388;52.432;20.662;2023-06-14T02:50:28;20.60;;;12.47;;
36359;SDS011;22388;52.432;20.662;2023-06-14T02:52:55;14.70;;;10.48;;
36359;SDS011;22388;52.432;20.662;2023-06-14T02:55:22;13.93;;;10.25;;
36359;SDS011;22388;52.432;20.662;2023-06-14T02:57:47;14.48;;;10.15;;
36359;SDS011;22388;52.432;20.662;2023-06-14T03:00:13;14.68;;;10.45;;
36359;SDS011;22388;52.432;20.662;2023-06-14T03:02:39;12.38;;;9.68;;
36359;SDS011;22388;52.432;20.662;2023-06-14T03:05:04;14.48;;;10.90;;
36359;SDS011;22388;52.432;20.662;2023-06-14T03:07:31;12.43;;;9.85;;
36359;SDS011;22388;52.432;20.662;2023-06-14T03:09:57;15.98;;;10.30;;
36359;SDS011;22388;52.432;20.662;2023-06-14T03:12:23;15.18;;;10.45;;
36359;SDS011;22388;52.432;20.662;2023-06-14T03:14:49;14.75;;;10.57;;
36359;SDS011;22388;52.432;20.662;2023-06-14T03:17:16;13.88;;;9.48;;
36359;SDS011;22388;52.432;20.662;2023-06-14T03:19:42;13.25;;;10.13;;
36359;SDS011;22388;52.432;20.662;2023-06-14T03:22:08;13.30;;;10.25;;
36359;SDS011;22388;52.432;20.662;2023-06-14T03:24:33;16.15;;;11.35;;
36359;SDS011;22388;52.432;20.662;2023-06-14T03:27:01;15.50;;;10.02;;
36359;SDS011;22388;52.432;20.662;2023-06-14T03:29:27;14.43;;;9.90;;
36359;SDS011;22388;52.432;20.662;2023-06-14T03:31:56;19.85;;;10.55;;
36359;SDS011;22388;52.432;20.662;2023-06-14T03:34:22;15.02;;;10.00;;
36359;SDS011;22388;52.432;20.662;2023-06-14T03:36:47;17.20;;;10.18;;
36359;SDS011;22388;52.432;20.662;2023-06-14T03:39:12;13.32;;;9.13;;
36359;SDS011;22388;52.432;20.662;2023-06-14T03:41:38;15.75;;;9.45;;
36359;SDS011;22388;52.432;20.662;2023-06-14T03:44:03;15.18;;;9.40;;
36359;SDS011;22388;52.432;20.662;2023-06-14T03:46:29;17.60;;;10.25;;
36359;SDS011;22388;52.432;20.662;2023-06-14T03:48:54;15.75;;;9.55;;
36359;SDS011;22388;52.432;20.662;2023-06-14T03:51:20;14.32;;;9.98;;
36359;SDS011;22388;52.432;20.662;2023-06-14T03:53:45;13.93;;;9.93;;
36359;SDS011;22388;52.432;20.662;2023-06-14T03:56:11;15.27;;;10.10;;
36359;SDS011;22388;52.432;20.662;2023-06-14T03:58:36;16.40;;;11.50;;
36359;SDS011;22388;52.432;20.662;2023-06-14T04:01:02;16.35;;;11.27;;
36359;SDS011;22388;52.432;20.662;2023-06-14T04:03:27;16.20;;;13.02;;
36359;SDS011;22388;52.432;20.662;2023-06-14T04:05:54;19.30;;;15.63;;
36359;SDS011;22388;52.432;20.662;2023-06-14T04:08:21;19.40;;;11.77;;
36359;SDS011;22388;52.432;20.662;2023-06-14T04:11:02;16.90;;;10.68;;
36359;SDS011;22388;52.432;20.662;2023-06-14T04:13:28;13.40;;;9.95;;
36359;SDS011;22388;52.432;20.662;2023-06-14T04:15:53;12.63;;;9.27;;
36359;SDS011;22388;52.432;20.662;2023-06-14T04:18:19;16.25;;;9.60;;
36359;SDS011;22388;52.432;20.662;2023-06-14T04:20:45;16.13;;;9.70;;
36359;SDS011;22388;52.432;20.662;2023-06-14T04:23:12;15.13;;;9.82;;
36359;SDS011;22388;52.432;20.662;2023-06-14T04:25:38;14.30;;;9.77;;
36359;SDS011;22388;52.432;20.662;2023-06-14T04:28:03;13.40;;;9.52;;
36359;SDS011;22388;52.432;20.662;2023-06-14T04:30:29;13.50;;;9.82;;
36359;SDS011;22388;52.432;20.662;2023-06-14T04:32:57;17.52;;;9.88;;
36359;SDS011;22388;52.432;20.662;2023-06-14T04:35:22;14.60;;;9.85;;
36359;SDS011;22388;52.432;20.662;2023-06-14T04:37:49;16.60;;;10.50;;
36359;SDS011;22388;52.432;20.662;2023-06-14T04:40:14;16.13;;;10.32;;
36359;SDS011;22388;52.432;20.662;2023-06-14T04:42:40;14.88;;;10.23;;
36359;SDS011;22388;52.432;20.662;2023-06-14T04:45:06;16.50;;;9.85;;
36359;SDS011;22388;52.432;20.662;2023-06-14T04:47:32;17.23;;;10.70;;
36359;SDS011;22388;52.432;20.662;2023-06-14T04:49:59;17.15;;;11.07;;
36359;SDS011;22388;52.432;20.662;2023-06-14T04:52:25;15.07;;;11.05;;
36359;SDS011;22388;52.432;20.662;2023-06-14T04:54:51;21.10;;;10.57;;
36359;SDS011;22388;52.432;20.662;2023-06-14T04:57:19;13.75;;;9.80;;
36359;SDS011;22388;52.432;20.662;2023-06-14T04:59:47;17.58;;;9.65;;
36359;SDS011;22388;52.432;20.662;2023-06-14T05:02:13;16.25;;;9.68;;
36359;SDS011;22388;52.432;20.662;2023-06-14T05:04:38;15.52;;;10.52;;
36359;SDS011;22388;52.432;20.662;2023-06-14T05:07:07;13.00;;;9.63;;
36359;SDS011;22388;52.432;20.662;2023-06-14T05:09:34;15.02;;;10.45;;
36359;SDS011;22388;52.432;20.662;2023-06-14T05:11:59;17.35;;;10.52;;
36359;SDS011;22388;52.432;20.662;2023-06-14T05:14:25;13.80;;;9.93;;
36359;SDS011;22388;52.432;20.662;2023-06-14T05:16:51;20.08;;;10.63;;
36359;SDS011;22388;52.432;20.662;2023-06-14T05:19:16;15.77;;;9.93;;
36359;SDS011;22388;52.432;20.662;2023-06-14T05:21:43;17.13;;;10.07;;
36359;SDS011;22388;52.432;20.662;2023-06-14T05:24:09;14.15;;;9.57;;
36359;SDS011;22388;52.432;20.662;2023-06-14T05:26:34;16.00;;;10.32;;
36359;SDS011;22388;52.432;20.662;2023-06-14T05:29:00;16.98;;;11.10;;
36359;SDS011;22388;52.432;20.662;2023-06-14T05:31:26;14.43;;;10.43;;
36359;SDS011;22388;52.432;20.662;2023-06-14T05:33:53;22.80;;;10.75;;
36359;SDS011;22388;52.432;20.662;2023-06-14T05:36:19;14.68;;;9.98;;
36359;SDS011;22388;52.432;20.662;2023-06-14T05:38:45;15.35;;;10.95;;
36359;SDS011;22388;52.432;20.662;2023-06-14T05:41:10;18.83;;;11.88;;
36359;SDS011;22388;52.432;20.662;2023-06-14T05:43:36;15.23;;;10.70;;
36359;SDS011;22388;52.432;20.662;2023-06-14T05:46:01;17.63;;;10.25;;
36359;SDS011;22388;52.432;20.662;2023-06-14T05:48:26;17.52;;;11.15;;
36359;SDS011;22388;52.432;20.662;2023-06-14T05:50:52;19.60;;;12.27;;
36359;SDS011;22388;52.432;20.662;2023-06-14T05:53:17;19.73;;;12.93;;
36359;SDS011;22388;52.432;20.662;2023-06-14T05:55:43;17.75;;;14.07;;
36359;SDS011;22388;52.432;20.662;2023-06-14T05:58:08;18.25;;;13.55;;
36359;SDS011;22388;52.432;20.662;2023-06-14T06:00:33;20.33;;;16.83;;
36359;SDS011;22388;52.432;20.662;2023-06-14T06:02:59;18.42;;;15.00;;
36359;SDS011;22388;52.432;20.662;2023-06-14T06:05:26;19.50;;;15.50;;
36359;SDS011;22388;52.432;20.662;2023-06-14T06:07:51;22.00;;;16.70;;
36359;SDS011;22388;52.432;20.662;2023-06-14T06:10:16;23.70;;;19.10;;
36359;SDS011;22388;52.432;20.662;2023-06-14T06:12:42;23.35;;;18.30;;
36359;SDS011;22388;52.432;20.662;2023-06-14T06:15:08;23.90;;;19.48;;
36359;SDS011;22388;52.432;20.662;2023-06-14T06:17:37;21.45;;;19.02;;
36359;SDS011;22388;52.432;20.662;2023-06-14T06:20:02;23.50;;;20.23;;
36359;SDS011;22388;52.432;20.662;2023-06-14T06:22:28;25.58;;;17.80;;
36359;SDS011;22388;52.432;20.662;2023-06-14T06:24:53;18.05;;;13.48;;
36359;SDS011;22388;52.432;20.662;2023-06-14T06:27:19;22.55;;;11.63;;
36359;SDS011;22388;52.432;20.662;2023-06-14T06:29:45;18.90;;;12.45;;
36359;SDS011;22388;52.432;20.662;2023-06-14T06:32:11;22.10;;;11.93;;
36359;SDS011;22388;52.432;20.662;2023-06-14T06:34:36;18.27;;;11.77;;
36359;SDS011;22388;52.432;20.662;2023-06-14T06:37:02;23.38;;;11.70;;
36359;SDS011;22388;52.432;20.662;2023-06-14T06:39:27;18.88;;;10.68;;
36359;SDS011;22388;52.432;20.662;2023-06-14T06:41:53;16.20;;;11.65;;
36359;SDS011;22388;52.432;20.662;2023-06-14T06:44:18;20.88;;;10.88;;
36359;SDS011;22388;52.432;20.662;2023-06-14T06:46:43;19.63;;;12.65;;
36359;SDS011;22388;52.432;20.662;2023-06-14T06:49:09;24.83;;;14.63;;
36359;SDS011;22388;52.432;20.662;2023-06-14T06:51:37;24.83;;;14.10;;
36359;SDS011;22388;52.432;20.662;2023-06-14T06:54:02;21.40;;;11.63;;
36359;SDS011;22388;52.432;20.662;2023-06-14T06:56:28;21.92;;;12.32;;
36359;SDS011;22388;52.432;20.662;2023-06-14T06:58:53;16.73;;;11.88;;
36359;SDS011;22388;52.432;20.662;2023-06-14T07:01:19;15.45;;;10.98;;
36359;SDS011;22388;52.432;20.662;2023-06-14T07:03:45;15.30;;;11.73;;
36359;SDS011;22388;52.432;20.662;2023-06-14T07:06:10;13.35;;;10.27;;
36359;SDS011;22388;52.432;20.662;2023-06-14T07:08:36;14.48;;;10.65;;
36359;SDS011;22388;52.432;20.662;2023-06-14T07:11:03;20.92;;;15.73;;
36359;SDS011;22388;52.432;20.662;2023-06-14T07:13:31;20.40;;;11.27;;
36359;SDS011;22388;52.432;20.662;2023-06-14T07:15:59;17.55;;;11.63;;
36359;SDS011;22388;52.432;20.662;2023-06-14T07:18:25;21.58;;;12.90;;
36359;SDS011;22388;52.432;20.662;2023-06-14T07:20:51;15.55;;;10.98;;
36359;SDS011;22388;52.432;20.662;2023-06-14T07:23:17;17.42;;;11.77;;
36359;SDS011;22388;52.432;20.662;2023-06-14T07:25:42;16.98;;;11.32;;
36359;SDS011;22388;52.432;20.662;2023-06-14T07:28:08;19.50;;;10.48;;
36359;SDS011;22388;52.432;20.662;2023-06-14T07:30:33;16.77;;;9.98;;
36359;SDS011;22388;52.432;20.662;2023-06-14T07:32:59;27.88;;;11.63;;
36359;SDS011;22388;52.432;20.662;2023-06-14T07:35:24;17.80;;;9.77;;
36359;SDS011;22388;52.432;20.662;2023-06-14T07:37:50;17.98;;;9.90;;
36359;SDS011;22388;52.432;20.662;2023-06-14T07:40:16;14.95;;;9.80;;
36359;SDS011;22388;52.432;20.662;2023-06-14T07:42:41;14.93;;;9.35;;
36359;SDS011;22388;52.432;20.662;2023-06-14T07:45:07;13.25;;;9.45;;
36359;SDS011;22388;52.432;20.662;2023-06-14T07:47:33;17.48;;;9.40;;
36359;SDS011;22388;52.432;20.662;2023-06-14T07:49:58;16.17;;;9.90;;
36359;SDS011;22388;52.432;20.662;2023-06-14T07:52:24;16.98;;;9.90;;
36359;SDS011;22388;52.432;20.662;2023-06-14T07:54:50;18.70;;;9.98;;
36359;SDS011;22388;52.432;20.662;2023-06-14T07:57:15;18.30;;;11.07;;
36359;SDS011;22388;52.432;20.662;2023-06-14T07:59:40;18.80;;;10.43;;
36359;SDS011;22388;52.432;20.662;2023-06-14T08:02:06;23.48;;;12.48;;
36359;SDS011;22388;52.432;20.662;2023-06-14T08:04:32;17.48;;;10.82;;
36359;SDS011;22388;52.432;20.662;2023-06-14T08:06:58;17.17;;;10.43;;
36359;SDS011;22388;52.432;20.662;2023-06-14T08:09:23;19.40;;;11.60;;
36359;SDS011;22388;52.432;20.662;2023-06-14T08:11:50;18.83;;;10.68;;
36359;SDS011;22388;52.432;20.662;2023-06-14T08:14:15;20.35;;;10.52;;
36359;SDS011;22388;52.432;20.662;2023-06-14T08:16:40;25.48;;;11.82;;
36359;SDS011;22388;52.432;20.662;2023-06-14T08:19:07;18.95;;;10.18;;
36359;SDS011;22388;52.432;20.662;2023-06-14T08:21:33;21.25;;;11.07;;
36359;SDS011;22388;52.432;20.662;2023-06-14T08:23:58;17.40;;;9.23;;
36359;SDS011;22388;52.432;20.662;2023-06-14T08:26:24;14.63;;;8.65;;
36359;SDS011;22388;52.432;20.662;2023-06-14T08:28:54;12.70;;;8.00;;
36359;SDS011;22388;52.432;20.662;2023-06-14T08:31:20;14.57;;;8.00;;
36359;SDS011;22388;52.432;20.662;2023-06-14T08:33:45;13.13;;;8.45;;
36359;SDS011;22388;52.432;20.662;2023-06-14T08:36:11;15.38;;;8.20;;
36359;SDS011;22388;52.432;20.662;2023-06-14T08:38:37;15.70;;;10.93;;
36359;SDS011;22388;52.432;20.662;2023-06-14T08:41:02;14.05;;;8.98;;
36359;SDS011;22388;52.432;20.662;2023-06-14T08:43:30;14.80;;;9.23;;
36359;SDS011;22388;52.432;20.662;2023-06-14T08:45:58;15.90;;;9.50;;
36359;SDS011;22388;52.432;20.662;2023-06-14T08:48:24;14.95;;;8.30;;
36359;SDS011;22388;52.432;20.662;2023-06-14T08:50:51;16.83;;;8.45;;
36359;SDS011;22388;52.432;20.662;2023-06-14T08:53:19;14.50;;;8.50;;
36359;SDS011;22388;52.432;20.662;2023-06-14T08:55:45;12.05;;;7.30;;
36359;SDS011;22388;52.432;20.662;2023-06-14T08:58:10;12.77;;;7.38;;
36359;SDS011;22388;52.432;20.662;2023-06-14T09:00:39;15.50;;;8.05;;
36359;SDS011;22388;52.432;20.662;2023-06-14T09:03:06;20.50;;;8.77;;
36359;SDS011;22388;52.432;20.662;2023-06-14T09:05:38;18.58;;;8.38;;
36359;SDS011;22388;52.432;20.662;2023-06-14T09:08:03;16.02;;;8.00;;
36359;SDS011;22388;52.432;20.662;2023-06-14T09:10:30;14.95;;;6.35;;
36359;SDS011;22388;52.432;20.662;2023-06-14T09:12:58;12.75;;;6.88;;
36359;SDS011;22388;52.432;20.662;2023-06-14T09:15:25;14.32;;;7.55;;
36359;SDS011;22388;52.432;20.662;2023-06-14T09:17:51;12.55;;;6.30;;
36359;SDS011;22388;52.432;20.662;2023-06-14T09:20:16;19.88;;;7.22;;
36359;SDS011;22388;52.432;20.662;2023-06-14T09:22:43;13.90;;;6.40;;
36359;SDS011;22388;52.432;20.662;2023-06-14T09:25:10;13.38;;;6.85;;
36359;SDS011;22388;52.432;20.662;2023-06-14T09:27:37;14.95;;;6.82;;
36359;SDS011;22388;52.432;20.662;2023-06-14T09:30:05;10.18;;;6.78;;
36359;SDS011;22388;52.432;20.662;2023-06-14T09:32:36;14.55;;;7.22;;
36359;SDS011;22388;52.432;20.662;2023-06-14T09:35:01;13.32;;;6.35;;
36359;SDS011;22388;52.432;20.662;2023-06-14T09:37:30;13.65;;;6.68;;
36359;SDS011;22388;52.432;20.662;2023-06-14T09:39:56;15.10;;;6.55;;
36359;SDS011;22388;52.432;20.662;2023-06-14T09:42:22;15.15;;;6.82;;
36359;SDS011;22388;52.432;20.662;2023-06-14T09:44:51;12.02;;;6.38;;
36359;SDS011;22388;52.432;20.662;2023-06-14T09:47:17;22.08;;;6.68;;
36359;SDS011;22388;52.432;20.662;2023-06-14T09:49:42;17.10;;;6.65;;
36359;SDS011;22388;52.432;20.662;2023-06-14T09:52:13;15.07;;;6.47;;
36359;SDS011;22388;52.432;20.662;2023-06-14T09:54:42;12.98;;;6.10;;
36359;SDS011;22388;52.432;20.662;2023-06-14T09:57:11;15.00;;;5.30;;
36359;SDS011;22388;52.432;20.662;2023-06-14T09:59:37;11.60;;;4.93;;
36359;SDS011;22388;52.432;20.662;2023-06-14T10:02:06;10.25;;;4.97;;
36359;SDS011;22388;52.432;20.662;2023-06-14T10:04:34;10.98;;;4.70;;
36359;SDS011;22388;52.432;20.662;2023-06-14T10:07:00;14.32;;;6.45;;
36359;SDS011;22388;52.432;20.662;2023-06-14T10:09:26;15.73;;;5.72;;
36359;SDS011;22388;52.432;20.662;2023-06-14T10:11:52;10.57;;;5.50;;
36359;SDS011;22388;52.432;20.662;2023-06-14T10:14:17;10.75;;;5.43;;
36359;SDS011;22388;52.432;20.662;2023-06-14T10:24:38;9.93;;;5.45;;
36359;SDS011;22388;52.432;20.662;2023-06-14T10:27:06;12.15;;;5.50;;
36359;SDS011;22388;52.432;20.662;2023-06-14T10:29:35;15.88;;;5.53;;
36359;SDS011;22388;52.432;20.662;2023-06-14T10:32:24;11.70;;;6.03;;
36359;SDS011;22388;52.432;20.662;2023-06-14T10:34:54;9.32;;;5.00;;
36359;SDS011;22388;52.432;20.662;2023-06-14T10:37:20;14.73;;;6.63;;
36359;SDS011;22388;52.432;20.662;2023-06-14T10:39:46;9.98;;;6.28;;
36359;SDS011;22388;52.432;20.662;2023-06-14T10:42:11;16.30;;;7.05;;
36359;SDS011;22388;52.432;20.662;2023-06-14T10:47:03;15.02;;;6.78;;
36359;SDS011;22388;52.432;20.662;2023-06-14T10:49:38;12.50;;;7.30;;
36359;SDS011;22388;52.432;20.662;2023-06-14T10:52:14;12.32;;;7.25;;
36359;SDS011;22388;52.432;20.662;2023-06-14T10:57:24;11.45;;;6.80;;
36359;SDS011;22388;52.432;20.662;2023-06-14T10:59:50;9.85;;;6.65;;
36359;SDS011;22388;52.432;20.662;2023-06-14T11:04:47;10.02;;;6.47;;
36359;SDS011;22388;52.432;20.662;2023-06-14T11:10:05;10.18;;;5.35;;
36359;SDS011;22388;52.432;20.662;2023-06-14T11:12:33;13.20;;;5.68;;
36359;SDS011;22388;52.432;20.662;2023-06-14T11:15:00;13.88;;;5.47;;
36359;SDS011;22388;52.432;20.662;2023-06-14T11:17:26;12.52;;;5.72;;
36359;SDS011;22388;52.432;20.662;2023-06-14T11:20:06;17.05;;;4.70;;
36359;SDS011;22388;52.432;20.662;2023-06-14T11:22:38;8.43;;;4.65;;
36359;SDS011;22388;52.432;20.662;2023-06-14T11:25:04;9.25;;;4.72;;
36359;SDS011;22388;52.432;20.662;2023-06-14T11:27:32;8.68;;;4.32;;
36359;SDS011;22388;52.432;20.662;2023-06-14T11:29:57;8.82;;;4.05;;
36359;SDS011;22388;52.432;20.662;2023-06-14T11:32:24;10.65;;;5.03;;
36359;SDS011;22388;52.432;20.662;2023-06-14T11:34:49;12.77;;;4.30;;
36359;SDS011;22388;52.432;20.662;2023-06-14T11:37:16;12.07;;;4.13;;
36359;SDS011;22388;52.432;20.662;2023-06-14T11:39:45;10.32;;;4.50;;
36359;SDS011;22388;52.432;20.662;2023-06-14T11:42:14;10.48;;;4.97;;
36359;SDS011;22388;52.432;20.662;2023-06-14T11:44:40;10.50;;;3.95;;
36359;SDS011;22388;52.432;20.662;2023-06-14T11:47:05;9.25;;;3.88;;
36359;SDS011;22388;52.432;20.662;2023-06-14T11:49:35;8.27;;;3.85;;
36359;SDS011;22388;52.432;20.662;2023-06-14T11:52:00;7.10;;;3.17;;
36359;SDS011;22388;52.432;20.662;2023-06-14T11:54:26;12.32;;;3.58;;
36359;SDS011;22388;52.432;20.662;2023-06-14T11:56:51;7.57;;;3.17;;
36359;SDS011;22388;52.432;20.662;2023-06-14T11:59:17;15.73;;;3.53;;
36359;SDS011;22388;52.432;20.662;2023-06-14T12:01:42;10.57;;;3.42;;
36359;SDS011;22388;52.432;20.662;2023-06-14T12:04:08;11.55;;;3.50;;
36359;SDS011;22388;52.432;20.662;2023-06-14T12:06:34;10.48;;;3.60;;
36359;SDS011;22388;52.432;20.662;2023-06-14T12:09:04;8.43;;;3.53;;
36359;SDS011;22388;52.432;20.662;2023-06-14T12:11:32;7.88;;;3.85;;
36359;SDS011;22388;52.432;20.662;2023-06-14T12:13:58;8.38;;;4.40;;
36359;SDS011;22388;52.432;20.662;2023-06-14T12:16:29;10.38;;;4.03;;
36359;SDS011;22388;52.432;20.662;2023-06-14T12:18:55;9.43;;;4.50;;
36359;SDS011;22388;52.432;20.662;2023-06-14T12:21:22;10.82;;;5.18;;
36359;SDS011;22388;52.432;20.662;2023-06-14T12:23:49;8.15;;;4.75;;
36359;SDS011;22388;52.432;20.662;2023-06-14T12:26:18;9.10;;;4.95;;
36359;SDS011;22388;52.432;20.662;2023-06-14T12:28:46;10.75;;;5.00;;
36359;SDS011;22388;52.432;20.662;2023-06-14T12:31:13;8.65;;;4.60;;
36359;SDS011;22388;52.432;20.662;2023-06-14T12:33:39;6.85;;;4.25;;
36359;SDS011;22388;52.432;20.662;2023-06-14T12:36:05;8.63;;;4.70;;
36359;SDS011;22388;52.432;20.662;2023-06-14T12:38:32;7.90;;;4.57;;
36359;SDS011;22388;52.432;20.662;2023-06-14T12:40:57;10.05;;;4.40;;
36359;SDS011;22388;52.432;20.662;2023-06-14T12:43:23;8.63;;;3.95;;
36359;SDS011;22388;52.432;20.662;2023-06-14T12:45:49;9.60;;;4.43;;
36359;SDS011;22388;52.432;20.662;2023-06-14T12:48:14;10.93;;;4.43;;
36359;SDS011;22388;52.432;20.662;2023-06-14T12:50:40;8.68;;;4.00;;
36359;SDS011;22388;52.432;20.662;2023-06-14T12:53:06;7.60;;;2.70;;
36359;SDS011;22388;52.432;20.662;2023-06-14T12:55:32;7.78;;;2.70;;
36359;SDS011;22388;52.432;20.662;2023-06-14T12:57:57;11.07;;;2.92;;
36359;SDS011;22388;52.432;20.662;2023-06-14T13:00:23;3.70;;;2.42;;
36359;SDS011;22388;52.432;20.662;2023-06-14T13:02:50;8.30;;;3.05;;
36359;SDS011;22388;52.432;20.662;2023-06-14T13:05:17;4.55;;;2.67;;
36359;SDS011;22388;52.432;20.662;2023-06-14T13:07:42;12.98;;;3.47;;
36359;SDS011;22388;52.432;20.662;2023-06-14T13:10:07;7.28;;;2.70;;
36359;SDS011;22388;52.432;20.662;2023-06-14T13:12:33;7.45;;;3.08;;
36359;SDS011;22388;52.432;20.662;2023-06-14T13:14:58;6.95;;;3.53;;
36359;SDS011;22388;52.432;20.662;2023-06-14T13:17:24;5.43;;;3.13;;
36359;SDS011;22388;52.432;20.662;2023-06-14T13:19:49;6.22;;;3.20;;
36359;SDS011;22388;52.432;20.662;2023-06-14T13:22:15;6.88;;;3.42;;
36359;SDS011;22388;52.432;20.662;2023-06-14T13:24:46;7.43;;;3.17;;
36359;SDS011;22388;52.432;20.662;2023-06-14T13:27:12;9.25;;;3.10;;
36359;SDS011;22388;52.432;20.662;2023-06-14T13:29:39;7.15;;;3.42;;
36359;SDS011;22388;52.432;20.662;2023-06-14T13:32:05;10.15;;;3.22;;
36359;SDS011;22388;52.432;20.662;2023-06-14T13:34:30;6.57;;;3.40;;
36359;SDS011;22388;52.432;20.662;2023-06-14T13:36:56;11.45;;;4.15;;
36359;SDS011;22388;52.432;20.662;2023-06-14T13:39:22;11.13;;;3.85;;
36359;SDS011;22388;52.432;20.662;2023-06-14T13:41:47;8.98;;;4.03;;
36359;SDS011;22388;52.432;20.662;2023-06-14T13:44:12;5.72;;;3.28;;
36359;SDS011;22388;52.432;20.662;2023-06-14T13:46:40;8.30;;;2.88;;
36359;SDS011;22388;52.432;20.662;2023-06-14T13:49:07;10.40;;;3.10;;
36359;SDS011;22388;52.432;20.662;2023-06-14T13:51:34;8.25;;;3.50;;
36359;SDS011;22388;52.432;20.662;2023-06-14T13:54:00;7.93;;;3.47;;
36359;SDS011;22388;52.432;20.662;2023-06-14T13:56:26;11.88;;;3.92;;
36359;SDS011;22388;52.432;20.662;2023-06-14T13:58:51;8.65;;;3.97;;
36359;SDS011;22388;52.432;20.662;2023-06-14T14:01:17;8.68;;;4.10;;
36359;SDS011;22388;52.432;20.662;2023-06-14T14:03:44;8.48;;;4.22;;
36359;SDS011;22388;52.432;20.662;2023-06-14T14:06:11;8.60;;;4.28;;
36359;SDS011;22388;52.432;20.662;2023-06-14T14:08:36;8.93;;;4.20;;
36359;SDS011;22388;52.432;20.662;2023-06-14T14:11:02;8.30;;;4.03;;
36359;SDS011;22388;52.432;20.662;2023-06-14T14:13:27;7.45;;;3.53;;
36359;SDS011;22388;52.432;20.662;2023-06-14T14:15:53;10.23;;;4.18;;
36359;SDS011;22388;52.432;20.662;2023-06-14T14:18:19;9.10;;;3.63;;
36359;SDS011;22388;52.432;20.662;2023-06-14T14:20:46;8.10;;;3.45;;
36359;SDS011;22388;52.432;20.662;2023-06-14T14:23:11;6.32;;;3.20;;
36359;SDS011;22388;52.432;20.662;2023-06-14T14:25:37;8.73;;;3.35;;
36359;SDS011;22388;52.432;20.662;2023-06-14T14:28:02;11.75;;;3.30;;
36359;SDS011;22388;52.432;20.662;2023-06-14T14:30:28;12.07;;;2.80;;
36359;SDS011;22388;52.432;20.662;2023-06-14T14:32:54;4.93;;;2.63;;
36359;SDS011;22388;52.432;20.662;2023-06-14T14:35:19;4.70;;;2.33;;